METAR Data
IDs: Format: Raw Decoded Include TAF

Data at: 2102 UTC 18 Apr 2021

LBBG 182100Z 01002KT 9999 SCT024 OVC032 10/09 Q1017 NOSIG